Time;durP1;ratioP1;P1;durP2;ratioP2;P2;SDS_P1;SDS_P2;PMS_P1;PMS_P2;Temp;Humidity;BMP_temperature;BMP_pressure;BME280_temperature;BME280_humidity;BME280_pressure;Samples;Min_cycle;Max_cycle;Signal;HPM_P1;HPM_P2
2023/01/23 00:00:36;;;;;;;11.07;5.85;;;;;;;8.14;79.53;100191.84;4946556;28;20053;-95
2023/01/23 00:03:02;;;;;;;9.07;5.75;;;;;;;8.07;80.12;100192.78;4959091;28;20109;-95
2023/01/23 00:05:28;;;;;;;9.13;6.25;;;;;;;7.97;79.70;100181.81;4949817;28;20042;-95
2023/01/23 00:07:54;;;;;;;12.43;5.88;;;;;;;7.79;79.97;100163.13;4965218;28;20073;-95
2023/01/23 00:10:19;;;;;;;11.65;6.53;;;;;;;7.85;80.36;100181.78;4949463;28;20045;-95
2023/01/23 00:12:52;;;;;;;10.27;6.25;;;;;;;7.75;79.28;100175.34;4948963;28;20456;-96
2023/01/23 00:15:18;;;;;;;9.43;6.25;;;;;;;7.75;79.22;100178.03;4981014;28;20101;-95
2023/01/23 00:17:44;;;;;;;11.35;6.40;;;;;;;7.78;79.31;100175.72;4965412;28;20038;-95
2023/01/23 00:20:13;;;;;;;9.38;6.40;;;;;;;7.90;79.58;100199.84;4980705;28;20109;-95
2023/01/23 00:22:39;;;;;;;10.48;6.65;;;;;;;7.82;79.62;100192.13;4948810;28;20049;-95
2023/01/23 00:25:05;;;;;;;11.60;6.53;;;;;;;7.87;79.62;100197.63;4948745;28;20034;-95
2023/01/23 00:27:32;;;;;;;10.45;5.70;;;;;;;7.77;79.51;100186.66;4964436;28;20030;-95
2023/01/23 00:29:58;;;;;;;8.98;5.53;;;;;;;7.92;79.58;100204.97;4964535;28;20045;-95
2023/01/23 00:32:24;;;;;;;9.77;5.60;;;;;;;7.80;79.55;100186.19;4964408;28;20039;-95
2023/01/23 00:34:49;;;;;;;9.40;5.35;;;;;;;7.65;79.89;100181.25;4948733;28;20034;-95
2023/01/23 00:37:17;;;;;;;8.57;5.65;;;;;;;7.73;79.55;100190.84;4948085;28;20040;-95
2023/01/23 00:39:44;;;;;;;12.23;5.32;;;;;;;7.69;79.31;100190.47;4948430;28;20056;-95
2023/01/23 00:42:11;;;;;;;11.80;5.63;;;;;;;7.77;79.57;100200.06;4981290;28;20040;-95
2023/01/23 00:44:37;;;;;;;7.97;4.65;;;;;;;7.90;78.95;100222.09;4947626;28;20125;-95
2023/01/23 00:47:02;;;;;;;10.35;5.55;;;;;;;7.80;79.20;100213.00;4964503;28;20417;-95
2023/01/23 00:49:30;;;;;;;7.85;5.20;;;;;;;7.88;79.16;100234.91;4948576;28;20037;-95
2023/01/23 00:51:55;;;;;;;8.73;5.15;;;;;;;7.70;79.10;100208.22;4948608;28;20030;-95
2023/01/23 00:54:24;;;;;;;9.48;5.28;;;;;;;7.92;79.30;100237.97;4964694;28;20457;-95
2023/01/23 00:56:50;;;;;;;9.68;5.07;;;;;;;7.84;79.20;100225.72;4964754;28;20030;-95
2023/01/23 00:59:17;;;;;;;11.52;4.88;;;;;;;7.83;79.14;100228.63;4949100;28;20039;-95
2023/01/23 01:01:44;;;;;;;8.13;4.90;;;;;;;7.84;78.83;100227.56;4945767;28;20121;-94
2023/01/23 01:04:10;;;;;;;7.72;5.00;;;;;;;7.82;79.02;100226.97;4944436;28;20062;-95
2023/01/23 01:06:37;;;;;;;7.45;4.57;;;;;;;7.86;79.03;100234.38;4928263;28;20065;-95
2023/01/23 01:09:03;;;;;;;10.55;4.68;;;;;;;7.84;78.63;100231.09;4929178;28;20038;-95
2023/01/23 01:11:32;;;;;;;7.53;5.28;;;;;;;7.91;79.01;100244.41;4961398;28;20031;-95
2023/01/23 01:13:57;;;;;;;7.85;4.55;;;;;;;7.88;78.35;100237.59;4959995;28;20059;-95
2023/01/23 01:16:23;;;;;;;9.05;4.53;;;;;;;7.76;78.69;100223.38;4943620;28;20034;-95
2023/01/23 01:18:50;;;;;;;6.03;4.32;;;;;;;7.81;78.93;100236.09;4944346;28;20070;-96
2023/01/23 01:21:16;;;;;;;10.93;4.18;;;;;;;7.80;78.49;100221.88;4944961;28;20093;-95
2023/01/23 01:23:42;;;;;;;8.43;4.88;;;;;;;7.86;78.39;100237.03;4927198;28;20031;-95
2023/01/23 01:26:08;;;;;;;7.45;4.50;;;;;;;8.06;78.48;100254.69;4943704;28;20063;-95
2023/01/23 01:28:37;;;;;;;9.07;4.13;;;;;;;7.99;78.51;100236.03;4928778;28;20038;-95
2023/01/23 01:31:10;;;;;;;8.27;4.65;;;;;;;7.93;78.36;100226.22;4960133;28;20037;-95
2023/01/23 01:33:39;;;;;;;9.15;4.60;;;;;;;7.96;78.57;100227.63;4944578;28;20121;-95
2023/01/23 01:36:16;;;;;;;9.55;5.10;;;;;;;8.09;78.53;100238.13;4944059;28;20041;-95
2023/01/23 01:38:41;;;;;;;6.22;4.38;;;;;;;8.13;78.04;100241.16;4959991;28;20027;-95
2023/01/23 01:41:07;;;;;;;7.88;4.80;;;;;;;7.94;78.26;100218.97;4929053;28;20026;-95
2023/01/23 01:43:33;;;;;;;8.02;4.82;;;;;;;8.21;77.71;100259.59;4928811;28;20137;-94
2023/01/23 01:46:04;;;;;;;7.40;4.60;;;;;;;8.24;77.45;100248.44;4944156;28;20473;-95
2023/01/23 01:48:36;;;;;;;;;;;;;;;8.24;77.61;100249.25;4977398;28;20101;-95
2023/01/23 01:51:07;;;;;;;7.43;4.65;;;;;;;8.09;77.45;100219.34;4960033;28;19910;-94
2023/01/23 01:53:33;;;;;;;8.73;5.20;;;;;;;8.08;78.03;100229.25;4944667;28;20046;-95
2023/01/23 01:56:00;;;;;;;6.75;4.78;;;;;;;8.15;77.40;100236.38;4927514;28;20027;-95
2023/01/23 01:58:27;;;;;;;10.43;4.85;;;;;;;8.15;77.30;100242.56;4943596;28;20087;-95
2023/01/23 02:00:54;;;;;;;10.40;5.97;;;;;;;8.14;77.22;100232.09;4945011;28;20122;-95
2023/01/23 02:03:20;;;;;;;7.90;5.18;;;;;;;8.08;77.37;100229.25;4944800;28;20120;-95
2023/01/23 02:05:47;;;;;;;9.07;5.20;;;;;;;8.04;77.51;100230.78;4980617;28;20126;-94
2023/01/23 02:08:25;;;;;;;8.98;5.25;;;;;;;8.16;77.39;100254.13;4963409;28;20042;-95
2023/01/23 02:10:51;;;;;;;7.05;5.28;;;;;;;8.06;77.54;100239.41;4978448;28;20141;-95
2023/01/23 02:13:38;;;;;;;14.23;5.78;;;;;;;7.97;77.20;100237.28;4947663;28;20080;-95
2023/01/23 02:16:10;;;;;;;9.80;5.55;;;;;;;8.18;77.71;100266.25;4962922;28;20034;-95
2023/01/23 02:18:37;;;;;;;8.90;5.93;;;;;;;8.09;77.17;100238.97;4995758;28;20046;-95
2023/01/23 02:21:06;;;;;;;7.88;5.38;;;;;;;8.04;77.09;100243.38;4946750;28;20069;-95
2023/01/23 02:24:02;;;;;;;13.52;5.63;;;;;;;8.24;76.79;100259.97;4961580;28;20038;-95
2023/01/23 02:26:31;;;;;;;8.88;5.43;;;;;;;8.17;76.79;100242.34;4996000;28;20096;-95
2023/01/23 02:28:58;;;;;;;9.13;5.18;;;;;;;8.20;76.80;100253.44;4946535;28;20138;-94
2023/01/23 02:31:23;;;;;;;10.02;5.60;;;;;;;8.25;76.36;100250.06;4962584;28;20065;-93
2023/01/23 02:33:54;;;;;;;9.50;4.90;;;;;;;8.29;76.03;100256.59;4962332;28;20035;-93
2023/01/23 02:36:21;;;;;;;10.68;5.35;;;;;;;8.33;75.55;100244.34;4965540;28;20486;-93
2023/01/23 02:39:12;;;;;;;8.05;4.65;;;;;;;8.55;75.25;100276.00;4950071;28;20034;-95
2023/01/23 02:41:46;;;;;;;10.93;5.38;;;;;;;8.50;75.62;100265.97;4955233;28;20381;-96
2023/01/23 02:44:18;;;;;;;9.88;5.13;;;;;;;8.55;75.47;100265.25;4967355;28;20476;-95
2023/01/23 02:46:45;;;;;;;8.00;5.20;;;;;;;8.48;75.14;100250.09;4966716;28;20108;-96
2023/01/23 02:49:10;;;;;;;9.32;5.53;;;;;;;8.52;75.25;100257.69;4952076;28;20089;-95
2023/01/23 02:51:36;;;;;;;8.77;4.75;;;;;;;8.49;74.64;100246.38;4949856;28;20041;-96
2023/01/23 02:54:03;;;;;;;8.45;4.72;;;;;;;8.62;75.04;100268.66;4950252;28;20457;-95
2023/01/23 02:56:29;;;;;;;8.77;5.05;;;;;;;8.62;74.51;100265.97;4965971;28;20038;-95
2023/01/23 03:01:39;;;;;;;9.80;5.53;;;;;;;8.57;74.37;100260.47;4968858;28;21050;-95
2023/01/23 03:04:05;;;;;;;8.25;4.65;;;;;;;8.53;74.34;100262.00;4929473;28;20385;-95
2023/01/23 03:06:36;;;;;;;6.72;4.97;;;;;;;8.61;74.49;100273.22;4962797;28;20027;-95
2023/01/23 03:09:09;;;;;;;8.60;5.35;;;;;;;8.52;74.58;100263.06;4947367;28;20129;-95
2023/01/23 03:11:36;;;;;;;7.72;5.13;;;;;;;8.51;74.71;100256.88;4931557;28;20038;-95
2023/01/23 03:14:03;;;;;;;10.02;5.45;;;;;;;8.49;74.65;100267.03;4946942;28;20054;-95
2023/01/23 03:16:28;;;;;;;8.20;5.63;;;;;;;8.28;74.96;100245.06;4962217;28;20035;-95
2023/01/23 03:18:56;;;;;;;10.13;5.35;;;;;;;8.34;74.84;100267.44;4946344;28;20098;-95
2023/01/23 03:21:23;;;;;;;9.55;5.35;;;;;;;8.25;75.45;100260.78;4947332;28;20042;-96
2023/01/23 03:23:49;;;;;;;10.05;5.13;;;;;;;8.14;75.07;100251.66;4963404;28;20058;-95
2023/01/23 03:26:16;;;;;;;10.10;5.63;;;;;;;8.24;75.37;100281.44;4929994;28;20066;-95
2023/01/23 03:31:26;;;;;;;11.68;5.28;;;;;;;8.13;75.30;100276.03;4952028;28;20070;-95
2023/01/23 03:33:52;;;;;;;11.50;5.47;;;;;;;8.19;75.08;100281.28;4930898;28;20039;-95
2023/01/23 03:36:17;;;;;;;10.68;5.25;;;;;;;8.07;75.56;100267.88;4930461;28;20405;-95
2023/01/23 03:41:31;;;;;;;6.90;4.93;;;;;;;8.10;75.21;100267.41;4922587;28;20112;-95
2023/01/23 03:43:57;;;;;;;10.05;5.28;;;;;;;8.25;75.44;100290.28;4962289;28;20070;-94
2023/01/23 03:46:23;;;;;;;8.45;5.53;;;;;;;8.17;75.43;100271.84;4945853;28;20039;-95
2023/01/23 03:48:49;;;;;;;10.77;5.15;;;;;;;8.15;75.31;100276.63;4945498;28;20045;-95
2023/01/23 03:51:16;;;;;;;8.07;5.35;;;;;;;8.14;74.76;100275.81;4946380;28;20035;-95
2023/01/23 03:53:42;;;;;;;7.85;5.35;;;;;;;8.18;74.92;100279.69;4946658;28;20105;-95
2023/01/23 03:56:08;;;;;;;9.45;5.10;;;;;;;8.18;74.98;100279.69;4946604;28;20035;-96
2023/01/23 03:58:33;;;;;;;9.95;5.65;;;;;;;8.16;74.55;100279.09;4929630;28;20054;-95
2023/01/23 04:01:02;;;;;;;10.27;5.60;;;;;;;8.13;75.19;100281.41;4929858;28;20070;-95
2023/01/23 04:03:28;;;;;;;13.32;6.07;;;;;;;8.19;74.93;100292.03;4946529;28;20050;-95
2023/01/23 04:05:57;;;;;;;8.38;5.63;;;;;;;8.32;75.30;100299.03;4930254;28;20096;-95
2023/01/23 04:08:23;;;;;;;10.23;5.90;;;;;;;8.24;74.69;100286.00;4946528;28;20065;-95
2023/01/23 04:10:50;;;;;;;9.25;5.60;;;;;;;8.19;74.67;100285.84;4946643;28;20031;-95
2023/01/23 04:13:17;;;;;;;9.85;5.90;;;;;;;8.19;74.18;100297.38;4978534;28;20172;-96
2023/01/23 04:15:44;;;;;;;8.52;5.40;;;;;;;8.23;73.71;100284.34;4931059;28;20066;-96
2023/01/23 04:18:11;;;;;;;11.75;4.75;;;;;;;8.16;73.02;100284.44;4946347;28;20034;-96
2023/01/23 04:20:36;;;;;;;8.52;4.65;;;;;;;8.16;72.28;100292.50;4947151;28;20047;-95
2023/01/23 04:23:02;;;;;;;12.75;5.18;;;;;;;8.19;72.92;100297.38;4949214;28;20047;-96
2023/01/23 04:25:28;;;;;;;15.23;6.25;;;;;;;8.26;72.57;100305.34;4931641;28;20043;-95
2023/01/23 04:27:54;;;;;;;10.18;5.63;;;;;;;8.19;72.04;100289.34;4947432;28;20038;-96
2023/01/23 04:30:22;;;;;;;16.27;5.88;;;;;;;8.18;72.75;100303.81;4932583;28;20058;-96
2023/01/23 04:32:50;;;;;;;10.80;5.40;;;;;;;8.14;72.00;100297.28;4932160;28;20070;-95
2023/01/23 04:35:16;;;;;;;9.95;5.50;;;;;;;8.28;71.57;100324.72;4950057;28;20049;-95
2023/01/23 04:37:42;;;;;;;8.02;4.82;;;;;;;8.18;70.73;100306.50;4947518;28;20038;-95
2023/01/23 04:40:10;;;;;;;11.30;4.57;;;;;;;8.22;70.57;100317.59;4947384;28;20535;-95
2023/01/23 04:42:37;;;;;;;8.50;4.85;;;;;;;8.21;71.16;100321.31;4946865;28;20065;-95
2023/01/23 04:45:03;;;;;;;13.23;4.60;;;;;;;8.06;69.97;100306.47;4929977;28;20426;-95
2023/01/23 04:47:29;;;;;;;7.78;4.47;;;;;;;8.14;70.48;100323.28;4945596;28;20039;-95
2023/01/23 04:49:54;;;;;;;9.85;4.90;;;;;;;8.14;70.77;100332.16;4930070;28;20039;-95
2023/01/23 04:52:20;;;;;;;10.20;5.38;;;;;;;8.06;70.99;100316.38;4945314;28;20474;-95
2023/01/23 04:54:50;;;;;;;9.57;4.78;;;;;;;8.12;70.22;100317.34;4946247;28;20039;-96
2023/01/23 04:57:16;;;;;;;9.35;4.13;;;;;;;8.23;69.71;100319.22;4929641;28;20039;-95
2023/01/23 04:59:42;;;;;;;9.27;4.25;;;;;;;8.14;69.46;100320.59;4930454;28;20046;-95
2023/01/23 05:02:08;;;;;;;10.38;4.93;;;;;;;8.06;69.28;100327.09;4930054;28;20490;-95
2023/01/23 05:04:34;;;;;;;12.25;5.18;;;;;;;8.04;69.56;100327.31;4943292;29;20043;-94
2023/01/23 05:06:59;;;;;;;19.67;5.72;;;;;;;8.06;69.37;100327.91;4909419;29;20110;-94
2023/01/23 05:09:27;;;;;;;9.98;4.88;;;;;;;8.25;69.36;100354.69;4910038;29;20031;-94
2023/01/23 05:11:53;;;;;;;9.35;5.13;;;;;;;8.16;69.80;100345.34;4941680;29;20090;-95
2023/01/23 05:14:21;;;;;;;14.95;5.97;;;;;;;8.20;69.88;100346.53;4925763;29;20039;-95
2023/01/23 05:16:46;;;;;;;10.73;4.97;;;;;;;8.19;68.91;100348.38;4910029;29;20046;-94
2023/01/23 05:19:12;;;;;;;13.02;4.63;;;;;;;8.26;68.83;100353.66;4908901;29;20032;-94
2023/01/23 05:21:37;;;;;;;11.30;4.93;;;;;;;8.27;68.48;100348.03;4909123;29;20418;-94
2023/01/23 05:24:05;;;;;;;14.40;5.45;;;;;;;8.30;68.50;100352.97;4925492;29;20046;-95
2023/01/23 05:26:30;;;;;;;12.10;5.43;;;;;;;8.49;68.84;100377.09;4927568;29;20038;-94
2023/01/23 05:28:56;;;;;;;11.10;5.38;;;;;;;8.30;68.68;100361.00;4909826;29;20039;-94
2023/01/23 05:31:23;;;;;;;11.75;4.53;;;;;;;8.39;67.40;100360.69;4925880;29;20037;-94
2023/01/23 05:33:49;;;;;;;10.88;4.50;;;;;;;8.35;67.77;100356.81;4936778;28;20026;-94
2023/01/23 05:36:16;;;;;;;12.20;5.65;;;;;;;8.24;67.81;100359.25;4960748;28;20109;-96
2023/01/23 05:38:41;;;;;;;10.70;5.95;;;;;;;8.27;68.38;100366.00;4930816;28;20038;-94
2023/01/23 05:41:08;;;;;;;10.30;4.95;;;;;;;8.49;67.53;100395.88;4931472;29;20138;-94
2023/01/23 05:44:15;;;;;;;10.25;5.03;;;;;;;8.32;68.49;100378.72;4942562;29;20077;-96
2023/01/23 05:46:41;;;;;;;10.75;5.55;;;;;;;8.44;68.73;100372.38;4943604;29;20047;-96
2023/01/23 05:49:07;;;;;;;10.48;4.85;;;;;;;8.34;68.48;100382.00;4942844;29;20550;-96
2023/01/23 05:51:42;;;;;;;10.05;4.97;;;;;;;8.44;68.31;100393.84;4964089;29;20042;-96
2023/01/23 05:54:28;;;;;;;9.02;5.43;;;;;;;8.24;69.02;100367.28;4927830;29;20032;-96
2023/01/23 05:56:55;;;;;;;7.43;4.95;;;;;;;8.30;68.43;100378.97;4922763;29;20040;-96
2023/01/23 05:59:25;;;;;;;10.32;5.93;;;;;;;8.45;68.94;100408.09;4888157;29;20050;-96
2023/01/23 06:01:51;;;;;;;15.35;5.78;;;;;;;8.45;68.83;100410.78;4940522;29;20084;-96
2023/01/23 06:04:18;;;;;;;21.77;14.18;;;;;;;8.42;69.39;100395.13;4921036;29;20047;-96
2023/01/23 06:06:50;;;;;;;10.45;5.68;;;;;;;8.60;68.55;100421.09;4923421;29;20059;-95
2023/01/23 06:09:18;;;;;;;9.13;5.15;;;;;;;8.61;67.99;100412.81;4891979;29;20044;-96
2023/01/23 06:11:44;;;;;;;11.55;5.75;;;;;;;8.60;67.99;100403.13;4905561;29;20117;-96
2023/01/23 06:14:11;;;;;;;16.10;5.93;;;;;;;8.53;68.34;100404.25;4921097;29;20039;-95
2023/01/23 06:16:37;;;;;;;10.52;5.70;;;;;;;8.55;68.74;100404.84;4926718;29;20541;-93
2023/01/23 06:19:03;;;;;;;13.93;7.32;;;;;;;8.49;68.74;100406.59;4910737;29;20043;-93
2023/01/23 06:21:30;;;;;;;13.98;5.78;;;;;;;8.58;67.71;100401.72;4927201;29;20046;-95
2023/01/23 06:24:11;;;;;;;13.82;6.28;;;;;;;8.72;67.97;100432.69;4917914;29;20107;-94
2023/01/23 06:26:36;;;;;;;11.30;4.93;;;;;;;8.73;67.65;100417.38;4947258;28;20061;-93
2023/01/23 06:29:05;;;;;;;13.95;6.43;;;;;;;8.77;66.86;100413.19;4926031;28;20438;-94
2023/01/23 06:31:31;;;;;;;8.35;5.10;;;;;;;8.77;68.08;100416.69;4943290;28;20490;-92
2023/01/23 06:34:00;;;;;;;11.80;4.90;;;;;;;8.92;67.35;100418.94;4942932;28;20109;-93
2023/01/23 06:36:25;;;;;;;9.80;5.53;;;;;;;8.89;66.47;100430.16;4943813;28;20042;-93
2023/01/23 06:38:51;;;;;;;9.95;5.38;;;;;;;9.04;67.27;100438.56;4931940;28;20038;-94
2023/01/23 06:41:16;;;;;;;9.35;5.07;;;;;;;9.01;67.51;100431.00;4962370;28;20038;-94
2023/01/23 06:43:42;;;;;;;13.38;6.00;;;;;;;9.14;66.15;100442.56;4947625;28;20048;-93
2023/01/23 06:46:08;;;;;;;12.77;7.43;;;;;;;9.06;66.72;100441.03;4945089;28;20488;-94
2023/01/23 06:48:37;;;;;;;11.75;6.70;;;;;;;9.01;67.57;100441.72;4961612;28;20121;-95
2023/01/23 06:51:06;;;;;;;13.70;6.30;;;;;;;9.17;65.91;100431.34;4959094;28;20050;-95
2023/01/23 06:53:31;;;;;;;13.18;6.13;;;;;;;9.10;66.71;100426.09;4937745;28;20096;-95
2023/01/23 06:56:04;;;;;;;12.60;6.35;;;;;;;9.22;66.71;100444.91;4964600;28;20485;-95
2023/01/23 06:58:32;;;;;;;11.75;5.50;;;;;;;9.15;66.95;100436.13;4962456;28;20033;-96
2023/01/23 07:01:09;;;;;;;13.48;6.05;;;;;;;9.21;66.50;100452.13;4957911;28;20042;-96
2023/01/23 07:03:34;;;;;;;10.68;5.45;;;;;;;9.28;66.76;100443.97;4946820;28;20485;-93
2023/01/23 07:06:06;;;;;;;15.98;6.38;;;;;;;9.39;66.71;100461.97;4928221;28;20061;-96
2023/01/23 07:08:32;;;;;;;11.32;6.15;;;;;;;9.31;67.54;100452.38;4957276;28;20048;-95
2023/01/23 07:11:04;;;;;;;11.63;6.68;;;;;;;9.45;66.04;100455.66;4950152;28;20061;-94
2023/01/23 07:13:30;;;;;;;;;;;;;;;9.65;66.54;100475.97;4950523;28;20035;-93
2023/01/23 07:15:55;;;;;;;12.63;6.05;;;;;;;9.47;65.91;100441.97;4963236;28;20067;-93
2023/01/23 07:18:21;;;;;;;12.88;5.32;;;;;;;9.61;65.94;100462.19;4953209;28;20134;-96
2023/01/23 07:20:48;;;;;;;9.63;5.18;;;;;;;9.64;66.25;100467.09;4966987;28;20129;-95
2023/01/23 07:23:14;;;;;;;14.90;6.53;;;;;;;9.68;66.05;100476.34;4972719;28;20042;-96
2023/01/23 07:25:39;;;;;;;15.48;7.90;;;;;;;9.54;66.89;100460.69;4970750;28;20042;-96
2023/01/23 07:28:07;;;;;;;11.77;6.53;;;;;;;9.48;67.12;100448.97;4947704;28;20485;-96
2023/01/23 07:30:38;;;;;;;13.90;6.30;;;;;;;9.66;66.33;100464.19;4947540;28;20041;-95
2023/01/23 07:33:07;;;;;;;11.40;6.45;;;;;;;9.56;66.84;100462.06;4945769;28;20014;-96
2023/01/23 07:35:33;;;;;;;9.10;5.70;;;;;;;9.67;66.58;100488.16;4954433;28;20042;-94
2023/01/23 07:37:58;;;;;;;11.88;6.88;;;;;;;9.73;67.20;100507.91;4951755;28;20390;-95
2023/01/23 07:40:24;;;;;;;10.68;5.60;;;;;;;9.70;66.54;100492.25;4944618;28;20045;-93
2023/01/23 07:42:49;;;;;;;12.45;5.90;;;;;;;9.58;68.20;100480.66;4954469;28;20018;-96
2023/01/23 07:45:21;;;;;;;12.77;5.85;;;;;;;9.85;67.05;100508.69;4953539;28;20144;-95
2023/01/23 07:47:59;;;;;;;16.30;7.95;;;;;;;9.91;66.69;100506.94;4970839;28;20062;-96
2023/01/23 07:50:28;;;;;;;16.38;9.13;;;;;;;9.87;66.88;100498.53;4990123;28;20038;-95
2023/01/23 08:05:58;;;;;;;11.15;5.45;;;;;;;10.41;64.92;100509.09;5418187;23;20116;-94
2023/01/23 08:08:28;;;;;;;11.60;4.88;;;;;;;10.35;64.42;100476.94;4960311;28;20039;-95
2023/01/23 08:11:32;;;;;;;8.32;5.32;;;;;;;10.44;64.20;100483.59;4952929;28;20041;-96
2023/01/23 08:13:51;;;;;;;8.77;5.15;;;;;;;10.64;64.05;100496.59;4971998;28;20081;-96
2023/01/23 08:27:49;;;;;;;9.50;5.30;;;;;;;10.75;63.84;100484.97;4970242;28;20047;-93
2023/01/23 08:31:06;;;;;;;;;;;;;;;;;;;;;
2023/01/23 08:33:35;;;;;;;9.48;5.43;;;;;;;11.12;62.79;100496.13;4933150;29;20083;-96
2023/01/23 08:36:22;;;;;;;10.68;6.03;;;;;;;11.26;62.03;100506.56;4916067;29;20028;-93
2023/01/23 08:39:09;;;;;;;9.38;5.30;;;;;;;11.23;62.41;100504.38;4918691;29;20099;-96
2023/01/23 09:02:53;;;;;;;9.48;5.72;;;;;;;10.71;64.30;100471.16;4957496;28;20048;-96
2023/01/23 09:12:12;;;;;;;12.40;6.57;;;;;;;10.97;63.37;100462.69;5070113;23;20088;-96
2023/01/23 09:18:05;;;;;;;18.80;8.52;;;;;;;11.21;62.82;100476.84;4989267;28;20467;-96
2023/01/23 09:20:31;;;;;;;8.50;5.53;;;;;;;11.30;61.96;100494.22;4966828;28;20046;-96
2023/01/23 09:23:10;;;;;;;;;;;;;;;;;;;;;
2023/01/23 09:26:15;;;;;;;7.35;4.32;;;;;;;11.01;61.48;100474.63;4978858;28;20103;-95
2023/01/23 09:28:48;;;;;;;10.30;5.22;;;;;;;11.00;61.94;100464.88;4999974;28;20030;-95
2023/01/23 09:31:27;;;;;;;10.70;5.03;;;;;;;11.07;62.07;100484.41;4975536;28;20019;-95
2023/01/23 09:33:56;;;;;;;9.88;6.00;;;;;;;10.83;62.92;100462.19;4965959;28;20465;-94
2023/01/23 09:36:28;;;;;;;9.55;5.15;;;;;;;10.72;62.82;100466.56;4969576;28;20190;-95
2023/01/23 09:39:06;;;;;;;11.20;5.03;;;;;;;10.75;63.08;100465.28;4951692;28;20034;-96
2023/01/23 09:41:38;;;;;;;8.35;4.82;;;;;;;10.69;62.74;100467.06;4986428;28;20049;-95
2023/01/23 09:44:13;;;;;;;35.03;20.58;;;;;;;10.50;63.91;100469.97;4956919;28;20030;-96
2023/01/23 09:46:43;;;;;;;10.20;6.70;;;;;;;10.58;64.02;100484.09;4984317;28;20432;-95
2023/01/23 09:49:37;;;;;;;8.38;4.50;;;;;;;10.39;63.69;100453.84;4970604;28;20416;-96
2023/01/23 09:55:31;;;;;;;14.70;7.10;;;;;;;10.32;64.72;100467.47;5260975;23;20062;-95
2023/01/23 10:01:19;;;;;;;13.68;7.88;;;;;;;10.42;64.02;100464.16;4982351;28;20044;-94
2023/01/23 10:03:45;;;;;;;10.65;4.97;;;;;;;10.19;64.95;100447.00;4972704;28;20046;-95
2023/01/23 10:06:58;;;;;;;9.50;5.40;;;;;;;10.40;63.94;100450.94;4955783;23;20536;-96
2023/01/23 10:09:41;;;;;;;10.15;4.90;;;;;;;10.17;63.88;100454.50;4912931;29;20040;-96
2023/01/23 10:13:04;;;;;;;6.10;3.90;;;;;;;10.27;63.78;100478.91;4892104;29;20068;-96
2023/01/23 10:15:51;;;;;;;9.93;4.85;;;;;;;10.25;64.32;100440.66;4894796;29;20076;-96
2023/01/23 10:18:39;;;;;;;9.93;4.93;;;;;;;10.51;63.79;100457.31;4906477;29;20142;-95
2023/01/23 10:21:33;;;;;;;13.10;4.55;;;;;;;10.71;63.35;100464.97;4915019;29;20040;-96
2023/01/23 10:24:28;;;;;;;8.85;4.93;;;;;;;10.76;62.62;100438.09;4905828;29;20047;-93
2023/01/23 10:27:01;;;;;;;8.40;4.63;;;;;;;10.73;62.58;100425.13;4909207;29;20036;-95
2023/01/23 10:29:38;;;;;;;10.30;4.45;;;;;;;10.67;62.03;100426.09;4902959;29;20043;-93
2023/01/23 10:32:21;;;;;;;7.85;4.35;;;;;;;10.47;63.23;100437.31;4874641;29;20044;-95
2023/01/23 10:34:51;;;;;;;9.32;4.00;;;;;;;10.33;63.02;100436.78;4915362;29;20036;-94
2023/01/23 10:37:26;;;;;;;12.52;4.68;;;;;;;10.19;64.19;100465.00;4895052;29;20032;-94
2023/01/23 10:40:01;;;;;;;8.50;4.20;;;;;;;10.08;63.39;100434.38;4898266;29;20032;-92
2023/01/23 10:42:29;;;;;;;10.43;4.88;;;;;;;10.14;63.87;100433.44;4927758;29;20040;-95
2023/01/23 10:44:55;;;;;;;12.50;4.95;;;;;;;10.16;64.44;100447.47;4893234;29;20048;-94
2023/01/23 10:47:34;;;;;;;9.13;5.07;;;;;;;10.23;64.09;100464.31;4888958;29;20229;-96
2023/01/23 10:50:02;;;;;;;7.65;4.40;;;;;;;10.09;63.82;100446.78;4858686;29;20500;-95
2023/01/23 10:52:29;;;;;;;9.18;4.38;;;;;;;10.20;63.50;100462.06;4886128;29;20036;-96
2023/01/23 10:54:54;;;;;;;8.18;4.88;;;;;;;10.38;62.87;100447.66;4885048;29;20048;-96
2023/01/23 10:57:23;;;;;;;10.40;5.10;;;;;;;10.32;62.98;100454.00;4907702;29;20041;-96
2023/01/23 11:00:29;;;;;;;9.68;5.20;;;;;;;10.52;62.63;100456.25;4906598;29;20036;-96
2023/01/23 11:02:56;;;;;;;9.23;4.35;;;;;;;10.62;62.25;100451.03;4905564;29;20084;-96
2023/01/23 11:05:42;;;;;;;9.48;5.35;;;;;;;10.46;62.33;100444.59;4908737;29;20052;-96
2023/01/23 11:08:32;;;;;;;6.75;4.60;;;;;;;10.58;62.08;100451.78;4929947;29;20032;-92
2023/01/23 11:11:17;;;;;;;8.23;5.10;;;;;;;10.62;61.80;100455.63;4919331;29;20035;-96
2023/01/23 11:13:44;;;;;;;11.95;6.43;;;;;;;10.46;61.53;100423.03;4910831;29;20515;-96
2023/01/23 11:16:25;;;;;;;17.52;11.65;;;;;;;10.13;62.50;100434.50;4911391;29;20068;-96
2023/01/23 11:19:11;;;;;;;15.38;9.00;;;;;;;10.17;63.04;100454.50;4879553;29;20056;-96
2023/01/23 11:22:13;;;;;;;10.02;4.50;;;;;;;10.39;62.32;100461.94;4915288;29;20036;-93
2023/01/23 11:24:44;;;;;;;;;;;;;;;10.32;62.54;100454.00;4934099;29;20063;-96
2023/01/23 11:27:25;;;;;;;9.73;4.43;;;;;;;9.94;62.26;100435.69;4899693;29;19954;-96
2023/01/23 11:30:49;;;;;;;9.20;4.72;;;;;;;10.03;63.58;100459.31;4917471;29;20103;-96
2023/01/23 11:33:46;;;;;;;;;;;;;;;;;;;;;
2023/01/23 11:44:15;;;;;;;9.77;5.88;;;;;;;9.97;63.82;100468.34;4966419;28;20490;-96
2023/01/23 11:46:59;;;;;;;;;;;;;;;10.12;63.04;100465.16;4943272;28;20043;-96
2023/01/23 11:55:50;;;;;;;6.70;3.97;;;;;;;10.16;61.38;100474.38;4978226;28;20054;-96
2023/01/23 11:58:40;;;;;;;8.07;4.35;;;;;;;9.93;62.03;100434.09;4969705;29;20039;-95
2023/01/23 12:01:35;;;;;;;8.70;4.70;;;;;;;9.79;62.44;100430.84;4925003;29;20148;-95
2023/01/23 12:04:33;;;;;;;;;;;;;;;;;;;;;
2023/01/23 12:07:20;;;;;;;7.45;4.00;;;;;;;9.77;62.20;100471.41;5085989;23;20909;-96
2023/01/23 12:10:37;;;;;;;9.63;3.88;;;;;;;9.78;63.37;100474.94;4967841;28;20051;-96
2023/01/23 12:13:52;;;;;;;9.18;4.25;;;;;;;9.51;62.96;100459.28;4943207;28;20110;-96
2023/01/23 12:19:26;;;;;;;8.27;4.07;;;;;;;9.48;62.84;100449.81;5004949;23;20073;-95
2023/01/23 12:22:15;;;;;;;9.23;4.75;;;;;;;9.68;62.89;100481.72;4981288;28;20050;-94
2023/01/23 12:25:16;;;;;;;24.17;12.60;;;;;;;9.71;62.82;100483.09;5005508;28;20042;-96
2023/01/23 12:36:46;;;;;;;13.02;5.82;;;;;;;9.60;63.11;100476.69;4946467;28;20454;-96
2023/01/23 12:50:55;;;;;;;;;;;;;;;;;;;;;
2023/01/23 12:54:17;;;;;;;;;;;;;;;;;;;;;
2023/01/23 13:14:29;;;;;;;;;;;;;;;;;;;;;
2023/01/23 13:17:49;;;;;;;9.00;4.88;;;;;;;9.05;62.05;100453.66;4798538;29;20607;-96
2023/01/23 13:23:36;;;;;;;9.98;5.03;;;;;;;9.03;62.50;100466.50;4853036;29;20052;-95
2023/01/23 13:26:21;;;;;;;10.52;5.32;;;;;;;9.04;62.56;100494.97;4789161;29;20043;-94
2023/01/23 13:43:16;;;;;;;;;;;;;;;;;;;;;
2023/01/23 13:46:52;;;;;;;;;;;;;;;;;;;;;
2023/01/23 13:56:43;;;;;;;8.45;4.32;;;;;;;8.78;62.55;100493.53;4862615;29;20132;-91
2023/01/23 14:00:00;;;;;;;;;;;;;;;;;;;;;
2023/01/23 14:05:26;;;;;;;10.77;4.70;;;;;;;8.57;63.26;100502.06;5057527;23;20087;-95
2023/01/23 14:08:04;;;;;;;9.85;4.35;;;;;;;8.64;63.51;100505.50;4936219;28;20043;-96
2023/01/23 14:10:49;;;;;;;8.88;4.72;;;;;;;8.61;63.74;100497.88;4949977;29;20039;-96
2023/01/23 14:13:27;;;;;;;9.25;4.28;;;;;;;8.60;63.68;100512.38;4948844;29;20027;-96
2023/01/23 14:19:05;;;;;;;;;;;;;;;8.62;63.48;100532.56;4927299;29;20047;-96
2023/01/23 14:21:36;;;;;;;11.95;4.53;;;;;;;8.60;63.48;100529.28;4908174;29;19915;-95
2023/01/23 14:24:32;;;;;;;12.57;4.90;;;;;;;8.52;63.07;100526.09;4910462;29;20051;-96
2023/01/23 14:31:25;;;;;;;15.48;4.40;;;;;;;8.59;62.34;100519.63;4878441;29;20109;-96
2023/01/23 14:34:04;;;;;;;9.40;4.72;;;;;;;8.42;63.60;100521.28;4889623;29;20041;-96
2023/01/23 14:36:34;;;;;;;9.25;4.50;;;;;;;8.48;63.16;100539.16;4861659;29;20044;-95
2023/01/23 14:39:47;;;;;;;10.35;4.57;;;;;;;8.43;62.91;100504.13;4864795;29;20056;-96
2023/01/23 14:42:43;;;;;;;8.93;4.35;;;;;;;8.46;62.43;100517.91;4895716;29;20055;-96
2023/01/23 14:59:06;;;;;;;7.47;4.55;;;;;;;8.30;63.22;100543.47;4874129;29;20798;-95
2023/01/23 15:01:37;;;;;;;13.55;6.05;;;;;;;8.38;63.65;100536.16;4889987;29;20075;-94
2023/01/23 15:04:31;;;;;;;8.75;4.93;;;;;;;8.30;63.11;100550.72;4896630;29;20053;-95